createdAt,value
2023-01-20T00:01:24.247Z,25.33
2023-01-20T00:03:53.051Z,23.77
2023-01-20T00:06:20.052Z,24.08
2023-01-20T00:08:51.106Z,23.73
2023-01-20T00:11:18.004Z,23.38
2023-01-20T00:13:45.456Z,23.02
2023-01-20T00:16:13.698Z,24.23
2023-01-20T00:18:40.998Z,23.75
2023-01-20T00:21:10.961Z,23.60
2023-01-20T00:23:38.621Z,24.67
2023-01-20T00:26:11.060Z,24.85
2023-01-20T00:28:38.391Z,24.85
2023-01-20T00:31:15.198Z,25.17
2023-01-20T00:33:42.410Z,24.85
2023-01-20T00:36:10.389Z,23.95
2023-01-20T00:38:37.133Z,22.92
2023-01-20T00:41:04.463Z,22.83
2023-01-20T00:43:31.202Z,23.55
2023-01-20T00:45:58.010Z,23.35
2023-01-20T00:48:24.791Z,25.00
2023-01-20T00:50:51.519Z,24.98
2023-01-20T00:53:18.340Z,25.05
2023-01-20T00:55:45.857Z,24.75
2023-01-20T00:58:12.635Z,25.45
2023-01-20T01:00:39.581Z,24.77
2023-01-20T01:03:06.375Z,25.35
2023-01-20T01:05:33.776Z,25.05
2023-01-20T01:08:00.585Z,23.00
2023-01-20T01:10:28.512Z,24.40
2023-01-20T01:12:55.259Z,23.52
2023-01-20T01:15:22.062Z,24.55
2023-01-20T01:17:48.877Z,24.92
2023-01-20T01:20:15.847Z,23.88
2023-01-20T01:22:42.604Z,23.77
2023-01-20T01:25:09.726Z,24.20
2023-01-20T01:27:37.054Z,23.23
2023-01-20T01:30:04.720Z,23.40
2023-01-20T01:32:47.508Z,22.58
2023-01-20T01:35:14.450Z,23.73
2023-01-20T01:37:41.303Z,23.63
2023-01-20T01:40:08.853Z,23.42
2023-01-20T01:42:36.169Z,23.85
2023-01-20T01:45:11.971Z,22.73
2023-01-20T01:47:49.942Z,23.20
2023-01-20T01:50:24.623Z,23.98
2023-01-20T01:52:54.044Z,21.80
2023-01-20T01:55:25.756Z,21.85
2023-01-20T01:57:54.208Z,23.27
2023-01-20T02:00:21.094Z,21.83
2023-01-20T02:02:48.080Z,21.92
2023-01-20T02:05:17.390Z,21.50
2023-01-20T02:07:46.312Z,22.77
2023-01-20T02:10:13.804Z,21.77
2023-01-20T02:12:42.324Z,22.67
2023-01-20T02:15:09.934Z,23.23
2023-01-20T02:17:58.286Z,22.88
2023-01-20T02:20:27.818Z,22.98
2023-01-20T02:23:27.961Z,20.98
2023-01-20T02:26:16.691Z,22.08
2023-01-20T02:28:58.951Z,21.15
2023-01-20T02:31:44.521Z,20.88
2023-01-20T02:34:50.934Z,20.23
2023-01-20T02:37:23.778Z,21.95
2023-01-20T02:39:50.544Z,21.25
2023-01-20T02:42:27.894Z,21.50
2023-01-20T02:45:04.593Z,22.23
2023-01-20T02:47:40.570Z,21.85
2023-01-20T02:50:48.442Z,22.30
2023-01-20T02:53:16.673Z,23.00
2023-01-20T02:55:52.051Z,21.67
2023-01-20T02:58:41.694Z,23.40
2023-01-20T03:01:17.047Z,23.73
2023-01-20T03:03:46.442Z,22.92
2023-01-20T03:06:22.403Z,23.60
2023-01-20T03:08:52.362Z,23.23
2023-01-20T03:11:19.896Z,23.33
2023-01-20T03:13:58.056Z,22.98
2023-01-20T03:16:27.636Z,22.98
2023-01-20T03:18:55.244Z,23.23
2023-01-20T03:21:22.759Z,23.67
2023-01-20T03:23:53.199Z,24.92
2023-01-20T03:26:21.806Z,25.10
2023-01-20T03:28:49.190Z,24.52
2023-01-20T03:31:21.339Z,24.42
2023-01-20T03:33:51.682Z,25.92
2023-01-20T03:36:20.560Z,23.23
2023-01-20T03:38:47.841Z,24.13
2023-01-20T03:41:47.323Z,24.60
2023-01-20T03:44:35.602Z,23.13
2023-01-20T03:47:20.949Z,24.92
2023-01-20T03:49:56.683Z,23.55
2023-01-20T03:55:28.826Z,25.95
2023-01-20T03:58:01.683Z,24.83
2023-01-20T04:00:31.339Z,25.77
2023-01-20T04:03:02.166Z,26.45
2023-01-20T04:05:29.880Z,24.38
2023-01-20T04:07:59.983Z,27.35
2023-01-20T04:10:28.050Z,27.30
2023-01-20T04:12:54.927Z,26.88
2023-01-20T04:15:23.322Z,28.20
2023-01-20T04:17:50.063Z,27.33
2023-01-20T04:20:17.091Z,28.52
2023-01-20T04:22:57.511Z,26.90
2023-01-20T04:25:30.696Z,30.90
2023-01-20T04:27:57.492Z,30.48
2023-01-20T04:30:24.635Z,32.70
2023-01-20T04:32:51.521Z,31.05
2023-01-20T04:35:20.155Z,32.22
2023-01-20T04:37:46.987Z,33.25
2023-01-20T04:40:14.002Z,32.80
2023-01-20T04:42:40.805Z,33.78
2023-01-20T04:45:08.134Z,33.92
2023-01-20T04:47:34.953Z,33.75
2023-01-20T04:50:01.723Z,34.67
2023-01-20T04:52:28.523Z,36.88
2023-01-20T04:54:55.307Z,36.35
2023-01-20T04:57:22.069Z,37.92
2023-01-20T04:59:48.787Z,35.83
2023-01-20T05:02:15.733Z,38.47
2023-01-20T05:04:42.620Z,37.92
2023-01-20T05:07:09.588Z,38.30
2023-01-20T05:09:36.698Z,39.83
2023-01-20T05:12:03.603Z,40.65
2023-01-20T05:14:30.432Z,39.63
2023-01-20T05:16:57.211Z,40.28
2023-01-20T05:19:24.014Z,42.70
2023-01-20T05:21:50.963Z,42.63
2023-01-20T05:24:17.798Z,42.08
2023-01-20T05:26:44.559Z,43.28
2023-01-20T05:29:11.552Z,42.33
2023-01-20T05:31:38.422Z,44.15
2023-01-20T05:34:05.175Z,43.38
2023-01-20T05:36:31.996Z,45.50
2023-01-20T05:38:58.775Z,45.33
2023-01-20T05:41:25.967Z,44.08
2023-01-20T05:43:56.226Z,45.10
2023-01-20T05:46:23.522Z,47.40
2023-01-20T05:48:50.384Z,44.90
2023-01-20T05:51:17.229Z,44.08
2023-01-20T05:53:44.025Z,42.53
2023-01-20T05:56:10.832Z,46.33
2023-01-20T05:58:37.548Z,47.13
2023-01-20T06:01:09.587Z,46.53
2023-01-20T06:03:36.694Z,47.17
2023-01-20T06:06:05.610Z,42.28
2023-01-20T06:08:32.607Z,48.40
2023-01-20T06:10:59.428Z,49.38
2023-01-20T06:13:26.410Z,48.13
2023-01-20T06:15:54.817Z,47.30
2023-01-20T06:18:22.496Z,45.25
2023-01-20T06:20:49.887Z,47.67
2023-01-20T06:23:17.220Z,43.58
2023-01-20T06:25:44.359Z,44.08
2023-01-20T06:28:11.214Z,44.80
2023-01-20T06:30:38.055Z,44.20
2023-01-20T06:33:04.892Z,48.05
2023-01-20T06:35:31.674Z,48.00
2023-01-20T06:37:58.747Z,48.92
2023-01-20T06:40:25.555Z,49.97
2023-01-20T06:42:52.263Z,50.33
2023-01-20T06:45:19.035Z,50.03
2023-01-20T06:47:49.643Z,50.88
2023-01-20T06:50:16.955Z,48.20
2023-01-20T06:52:43.791Z,48.80
2023-01-20T06:55:11.275Z,46.15
2023-01-20T06:57:38.224Z,47.83
2023-01-20T07:00:05.562Z,48.15
2023-01-20T07:02:33.383Z,48.08
2023-01-20T07:05:00.279Z,46.88
2023-01-20T07:07:27.118Z,45.30
2023-01-20T07:09:57.166Z,44.40
2023-01-20T07:12:23.880Z,45.25
2023-01-20T07:14:50.716Z,45.10
2023-01-20T07:17:17.517Z,45.78
2023-01-20T07:19:44.289Z,44.08
2023-01-20T07:22:11.101Z,43.80
2023-01-20T07:24:37.932Z,47.97
2023-01-20T07:27:04.764Z,47.47
2023-01-20T07:29:31.505Z,45.55
2023-01-20T07:31:58.292Z,47.55
2023-01-20T07:34:25.181Z,47.47
2023-01-20T07:36:52.481Z,47.63
2023-01-20T07:39:19.505Z,46.42
2023-01-20T07:41:48.005Z,46.13
2023-01-20T07:44:15.677Z,46.72
2023-01-20T07:46:42.769Z,44.70
2023-01-20T07:49:12.468Z,47.30
2023-01-20T07:51:39.457Z,45.17
2023-01-20T07:54:06.652Z,44.60
2023-01-20T07:56:33.472Z,45.83
2023-01-20T07:59:00.498Z,45.00
2023-01-20T08:01:30.738Z,45.55
2023-01-20T08:03:59.048Z,45.42
2023-01-20T08:06:26.982Z,44.17
2023-01-20T08:08:56.640Z,45.45
2023-01-20T08:11:25.485Z,44.33
2023-01-20T08:13:53.132Z,45.97
2023-01-20T08:16:20.520Z,45.88
2023-01-20T08:19:07.360Z,47.15
2023-01-20T08:21:34.480Z,46.30
2023-01-20T08:24:03.874Z,45.05
2023-01-20T08:26:31.603Z,44.42
2023-01-20T08:29:06.990Z,45.67
2023-01-20T08:31:34.493Z,43.45
2023-01-20T08:34:01.339Z,42.20
2023-01-20T08:36:36.169Z,39.80
2023-01-20T08:39:07.255Z,43.08
2023-01-20T08:41:37.086Z,40.95
2023-01-20T08:44:07.097Z,43.85
2023-01-20T08:46:34.862Z,41.70
2023-01-20T08:49:02.160Z,42.92
2023-01-20T08:51:31.469Z,43.10
2023-01-20T08:53:59.064Z,41.63
2023-01-20T08:56:26.183Z,41.20
2023-01-20T08:58:53.696Z,38.13
2023-01-20T09:01:26.871Z,38.05
2023-01-20T09:04:05.461Z,43.20
2023-01-20T09:06:45.345Z,41.20
2023-01-20T09:09:13.941Z,45.47
2023-01-20T09:11:42.129Z,45.42
2023-01-20T09:14:09.492Z,49.10
2023-01-20T09:16:36.527Z,48.00
2023-01-20T09:19:03.838Z,46.53
2023-01-20T09:21:31.080Z,48.25
2023-01-20T09:23:58.044Z,48.75
2023-01-20T09:26:35.397Z,49.25
2023-01-20T09:29:03.603Z,52.03
2023-01-20T09:31:30.504Z,51.13
2023-01-20T09:33:58.081Z,52.15
2023-01-20T09:36:24.922Z,49.55
2023-01-20T09:38:53.745Z,49.45
2023-01-20T09:41:28.637Z,49.08
2023-01-20T09:44:13.970Z,49.65
2023-01-20T09:46:56.946Z,50.40
2023-01-20T09:49:34.733Z,50.38
2023-01-20T09:52:18.385Z,47.03
2023-01-20T09:54:54.930Z,45.92
2023-01-20T09:57:24.796Z,46.63
2023-01-20T10:00:00.433Z,48.97
2023-01-20T10:02:35.123Z,50.40
2023-01-20T10:05:13.560Z,47.90
2023-01-20T10:07:54.847Z,49.17
2023-01-20T10:10:35.245Z,42.70
2023-01-20T10:13:12.188Z,44.38
2023-01-20T10:15:47.358Z,44.97
2023-01-20T10:18:36.105Z,41.25
2023-01-20T10:21:20.915Z,44.97
2023-01-20T10:24:03.353Z,43.50
2023-01-20T10:26:36.312Z,45.08
2023-01-20T10:29:06.753Z,46.30
2023-01-20T10:31:38.609Z,47.90
2023-01-20T10:34:16.732Z,45.70
2023-01-20T10:36:48.077Z,45.97
2023-01-20T10:39:51.985Z,46.97
2023-01-20T10:42:20.316Z,45.47
2023-01-20T10:44:59.675Z,42.88
2023-01-20T10:48:05.404Z,45.45
2023-01-20T10:51:03.931Z,43.13
2023-01-20T10:53:59.600Z,46.83
2023-01-20T10:56:38.072Z,46.50
2023-01-20T10:59:14.122Z,44.83
2023-01-20T11:01:43.022Z,45.47
2023-01-20T11:04:20.379Z,43.78
2023-01-20T11:06:56.782Z,44.72
2023-01-20T11:09:29.986Z,46.72
2023-01-20T11:11:58.873Z,46.58
2023-01-20T11:14:26.248Z,47.60
2023-01-20T11:17:03.348Z,45.30
2023-01-20T11:19:58.412Z,47.05
2023-01-20T11:22:32.110Z,46.55
2023-01-20T11:25:17.607Z,48.42
2023-01-20T11:27:48.060Z,47.25
2023-01-20T11:30:30.833Z,46.13
2023-01-20T11:33:09.248Z,45.85
2023-01-20T11:35:36.400Z,47.30
2023-01-20T11:38:41.348Z,45.88
2023-01-20T11:41:19.808Z,47.85
2023-01-20T11:43:47.723Z,49.13
2023-01-20T11:46:33.924Z,48.35
2023-01-20T11:49:17.949Z,47.92
2023-01-20T11:51:53.837Z,47.97
2023-01-20T11:54:29.141Z,48.47
2023-01-20T11:57:05.277Z,47.63
2023-01-20T11:59:45.996Z,47.08
2023-01-20T12:02:12.962Z,48.17
2023-01-20T12:04:52.190Z,46.60
2023-01-20T12:07:50.192Z,49.70
2023-01-20T12:10:19.356Z,47.30
2023-01-20T12:13:02.880Z,45.95
2023-01-20T12:15:34.674Z,45.05
2023-01-20T12:18:09.616Z,48.35
2023-01-20T12:20:54.591Z,48.25
2023-01-20T12:23:43.751Z,48.00
2023-01-20T12:26:12.637Z,47.28
2023-01-20T12:28:42.519Z,48.38
2023-01-20T12:31:11.135Z,48.63
2023-01-20T12:33:43.081Z,47.92
2023-01-20T12:36:40.610Z,48.60
2023-01-20T12:39:32.376Z,47.85
2023-01-20T12:42:10.900Z,47.72
2023-01-20T12:44:37.911Z,46.42
2023-01-20T12:47:25.831Z,50.47
2023-01-20T12:50:14.568Z,48.40
2023-01-20T12:53:09.088Z,49.50
2023-01-20T12:55:46.737Z,47.10
2023-01-20T12:58:40.538Z,47.33
2023-01-20T13:01:42.763Z,47.58
2023-01-20T13:05:07.298Z,47.17
2023-01-20T13:07:55.873Z,49.08
2023-01-20T13:10:51.524Z,48.80
2023-01-20T13:13:51.666Z,46.92
2023-01-20T13:16:40.987Z,48.78
2023-01-20T13:19:24.541Z,46.50
2023-01-20T13:22:07.029Z,48.50
2023-01-20T13:24:35.122Z,48.10
2023-01-20T13:27:02.833Z,46.92
2023-01-20T13:29:51.666Z,48.67
2023-01-20T13:32:28.104Z,49.15
2023-01-20T13:34:56.155Z,49.95
2023-01-20T13:37:35.232Z,46.28
2023-01-20T13:40:02.422Z,48.50
2023-01-20T13:42:38.216Z,50.25
2023-01-20T13:45:14.687Z,50.03
2023-01-20T13:47:50.241Z,49.22
2023-01-20T13:50:27.728Z,50.67
2023-01-20T13:52:57.410Z,49.80
2023-01-20T13:55:50.302Z,48.72
2023-01-20T13:58:18.132Z,48.30
2023-01-20T14:00:47.559Z,48.40
2023-01-20T14:03:26.196Z,50.63
2023-01-20T14:06:00.163Z,49.15
2023-01-20T14:08:38.881Z,50.30
2023-01-20T14:11:24.458Z,51.33
2023-01-20T14:13:57.333Z,49.67
2023-01-20T14:16:28.967Z,50.45
2023-01-20T14:18:59.324Z,47.78
2023-01-20T14:21:31.192Z,48.90
2023-01-20T14:23:57.968Z,49.00
2023-01-20T14:26:27.965Z,49.80
2023-01-20T14:28:59.063Z,48.67
2023-01-20T14:31:30.658Z,47.92
2023-01-20T14:33:59.285Z,51.58
2023-01-20T14:36:29.763Z,50.60
2023-01-20T14:39:01.202Z,51.58
2023-01-20T14:41:46.868Z,51.22
2023-01-20T14:44:21.366Z,51.85
2023-01-20T14:46:56.385Z,52.90
2023-01-20T14:49:29.257Z,53.22
2023-01-20T14:51:56.395Z,50.42
2023-01-20T14:54:35.317Z,52.20
2023-01-20T14:57:22.314Z,50.90
2023-01-20T15:00:02.559Z,50.88
2023-01-20T15:02:32.390Z,51.47
2023-01-20T15:04:59.539Z,53.53
2023-01-20T15:07:27.004Z,51.92
2023-01-20T15:10:00.402Z,51.20
2023-01-20T15:12:35.989Z,51.78
2023-01-20T15:15:12.377Z,51.75
2023-01-20T15:18:11.071Z,52.95
2023-01-20T15:20:40.881Z,52.45
2023-01-20T15:23:21.099Z,52.03
2023-01-20T15:25:52.228Z,51.70
2023-01-20T15:28:29.739Z,51.72
2023-01-20T15:30:58.823Z,51.40
2023-01-20T15:33:26.239Z,52.22
2023-01-20T15:35:59.205Z,53.80
2023-01-20T15:38:30.587Z,51.85
2023-01-20T15:40:57.827Z,51.50
2023-01-20T15:43:24.594Z,49.47
2023-01-20T15:45:51.398Z,49.08
2023-01-20T15:48:22.062Z,51.95
2023-01-20T15:50:49.046Z,51.95
2023-01-20T15:53:16.357Z,52.67
2023-01-20T15:55:49.504Z,50.30
2023-01-20T15:58:25.607Z,53.22
2023-01-20T16:00:53.150Z,54.13
2023-01-20T16:03:21.286Z,53.83
2023-01-20T16:05:49.592Z,54.40
2023-01-20T16:08:22.330Z,52.55
2023-01-20T16:10:49.355Z,52.92
2023-01-20T16:13:16.435Z,51.75
2023-01-20T16:15:43.685Z,56.15
2023-01-20T16:18:17.753Z,52.50
2023-01-20T16:20:47.006Z,52.28
2023-01-20T16:23:14.007Z,52.63
2023-01-20T16:25:41.106Z,51.75
2023-01-20T16:28:14.523Z,53.72
2023-01-20T16:30:42.272Z,53.92
2023-01-20T16:33:21.107Z,52.55
2023-01-20T16:35:50.191Z,52.47
2023-01-20T16:38:19.239Z,53.03
2023-01-20T16:40:52.392Z,51.20
2023-01-20T16:43:22.324Z,51.50
2023-01-20T16:45:51.042Z,51.13
2023-01-20T16:48:18.068Z,51.95
2023-01-20T16:50:44.866Z,50.38
2023-01-20T16:53:13.449Z,51.28
2023-01-20T16:55:43.831Z,51.67
2023-01-20T16:58:11.057Z,54.72
2023-01-20T17:00:38.349Z,52.50
2023-01-20T17:03:05.579Z,51.72
2023-01-20T17:05:32.519Z,51.72
2023-01-20T17:07:59.478Z,51.72
2023-01-20T17:10:28.629Z,51.08
2023-01-20T17:12:56.807Z,51.75
2023-01-20T17:15:24.692Z,55.78
2023-01-20T17:17:54.770Z,50.80
2023-01-20T17:20:22.278Z,53.17
2023-01-20T17:22:48.997Z,50.65
2023-01-20T17:25:17.685Z,50.72
2023-01-20T17:27:44.812Z,50.60
2023-01-20T17:30:11.733Z,51.20
2023-01-20T17:32:38.465Z,52.92
2023-01-20T17:35:05.837Z,51.65
2023-01-20T17:37:32.556Z,49.17
2023-01-20T17:39:59.338Z,49.92
2023-01-20T17:42:26.008Z,48.42
2023-01-20T17:44:52.686Z,45.95
2023-01-20T17:47:19.405Z,49.58
2023-01-20T17:49:46.009Z,49.13
2023-01-20T17:52:12.943Z,50.05
2023-01-20T17:54:40.693Z,50.03
2023-01-20T17:57:07.354Z,51.75
2023-01-20T17:59:34.038Z,52.22
2023-01-20T18:02:00.722Z,51.60
2023-01-20T18:04:27.453Z,51.60
2023-01-20T18:06:54.123Z,55.78
2023-01-20T18:09:20.923Z,57.53
2023-01-20T18:11:47.701Z,50.85
2023-01-20T18:14:14.736Z,57.65
2023-01-20T18:16:41.818Z,51.75
2023-01-20T18:19:11.934Z,50.53
2023-01-20T18:21:39.057Z,50.25
2023-01-20T18:24:07.528Z,49.63
2023-01-20T18:26:36.179Z,49.13
2023-01-20T18:29:06.413Z,48.30
2023-01-20T18:31:34.831Z,48.92
2023-01-20T18:34:04.545Z,49.55
2023-01-20T18:36:38.889Z,48.28
2023-01-20T18:39:12.167Z,47.20
2023-01-20T18:41:38.888Z,47.65
2023-01-20T18:44:07.275Z,49.30
2023-01-20T18:46:34.979Z,49.80
2023-01-20T18:49:01.949Z,48.28
2023-01-20T18:51:29.768Z,50.80
2023-01-20T18:54:05.594Z,47.83
2023-01-20T18:56:33.470Z,49.20
2023-01-20T18:59:01.297Z,49.75
2023-01-20T19:01:30.523Z,47.95
2023-01-20T19:03:57.446Z,47.63
2023-01-20T19:06:29.865Z,49.95
2023-01-20T19:08:58.370Z,54.17
2023-01-20T19:11:28.448Z,113.68
2023-01-20T19:13:55.876Z,54.20
2023-01-20T19:16:25.564Z,46.70
2023-01-20T19:18:58.664Z,47.15
2023-01-20T19:21:25.885Z,48.95
2023-01-20T19:23:54.790Z,45.92
2023-01-20T19:26:23.506Z,45.55
2023-01-20T19:28:57.183Z,45.95
2023-01-20T19:31:24.803Z,45.08
2023-01-20T19:33:51.784Z,44.45
2023-01-20T19:36:19.418Z,46.20
2023-01-20T19:38:46.664Z,46.70
2023-01-20T19:41:19.174Z,48.22
2023-01-20T19:43:46.280Z,44.95
2023-01-20T19:46:15.706Z,45.13
2023-01-20T19:48:42.722Z,44.17
2023-01-20T19:51:12.747Z,45.55
2023-01-20T19:53:40.051Z,44.75
2023-01-20T19:56:18.631Z,44.60
2023-01-20T19:58:47.281Z,41.92
2023-01-20T20:01:17.335Z,40.92
2023-01-20T20:03:44.737Z,42.58
2023-01-20T20:06:30.280Z,43.22
2023-01-20T20:09:02.227Z,43.65
2023-01-20T20:11:30.846Z,45.88
2023-01-20T20:13:59.715Z,44.03
2023-01-20T20:16:29.299Z,43.67
2023-01-20T20:18:56.798Z,44.10
2023-01-20T20:21:24.294Z,41.55
2023-01-20T20:23:52.672Z,43.22
2023-01-20T20:26:22.302Z,40.75
2023-01-20T20:28:49.763Z,37.95
2023-01-20T20:31:16.974Z,38.75
2023-01-20T20:33:43.772Z,34.80
2023-01-20T20:36:10.823Z,34.28
2023-01-20T20:38:37.560Z,34.33
2023-01-20T20:41:05.941Z,34.80
2023-01-20T20:43:32.702Z,36.55
2023-01-20T20:46:00.974Z,36.83
2023-01-20T20:48:28.419Z,36.35
2023-01-20T20:50:55.282Z,35.20
2023-01-20T20:53:22.366Z,33.80
2023-01-20T20:55:49.080Z,38.00
2023-01-20T20:58:16.006Z,34.17
2023-01-20T21:00:43.101Z,33.95
2023-01-20T21:03:09.873Z,32.35
2023-01-20T21:05:36.682Z,33.42
2023-01-20T21:08:03.720Z,30.85
2023-01-20T21:10:30.413Z,31.08
2023-01-20T21:12:57.042Z,31.92
2023-01-20T21:15:23.849Z,29.98
2023-01-20T21:17:50.544Z,30.67
2023-01-20T21:20:17.771Z,30.02
2023-01-20T21:22:44.571Z,32.67
2023-01-20T21:25:11.268Z,33.40
2023-01-20T21:27:38.029Z,31.38
2023-01-20T21:30:05.265Z,30.50
2023-01-20T21:32:31.917Z,28.13
2023-01-20T21:34:58.881Z,28.98
2023-01-20T21:37:25.526Z,27.35
2023-01-20T21:39:52.202Z,25.73
2023-01-20T21:42:18.863Z,25.73
2023-01-20T21:44:45.550Z,25.45
2023-01-20T21:47:12.235Z,26.65
2023-01-20T21:49:38.915Z,22.95
2023-01-20T21:52:05.671Z,23.90
2023-01-20T21:54:33.637Z,25.23
2023-01-20T21:57:01.860Z,22.42
2023-01-20T21:59:28.587Z,23.52
2023-01-20T22:01:55.419Z,22.65
2023-01-20T22:04:22.148Z,24.45
2023-01-20T22:06:48.985Z,24.25
2023-01-20T22:09:15.748Z,21.95
2023-01-20T22:11:42.386Z,22.13
2023-01-20T22:14:10.020Z,23.33
2023-01-20T22:16:36.925Z,22.58
2023-01-20T22:19:03.796Z,22.35
2023-01-20T22:21:31.965Z,22.90
2023-01-20T22:23:58.863Z,24.30
2023-01-20T22:26:25.679Z,23.73
2023-01-20T22:28:53.350Z,22.50
2023-01-20T22:31:20.191Z,24.30
2023-01-20T22:33:51.757Z,22.85
2023-01-20T22:36:20.080Z,23.67
2023-01-20T22:38:48.564Z,23.48
2023-01-20T22:41:16.072Z,25.42
2023-01-20T22:43:43.011Z,23.55
2023-01-20T22:46:12.835Z,23.08
2023-01-20T22:48:40.319Z,23.48
2023-01-20T22:51:13.344Z,24.88
2023-01-20T22:53:40.734Z,24.23
2023-01-20T22:56:12.484Z,23.92
2023-01-20T22:58:39.846Z,24.52
2023-01-20T23:01:15.994Z,23.73
2023-01-20T23:03:43.823Z,23.67
2023-01-20T23:06:11.661Z,23.45
2023-01-20T23:08:39.106Z,23.20
2023-01-20T23:11:14.302Z,25.25
2023-01-20T23:13:41.627Z,24.10
2023-01-20T23:16:12.950Z,25.48
2023-01-20T23:18:39.856Z,24.40
2023-01-20T23:21:06.991Z,25.48
2023-01-20T23:23:34.407Z,24.40
2023-01-20T23:26:07.996Z,25.58
2023-01-20T23:28:34.973Z,24.02
2023-01-20T23:31:07.698Z,24.95
2023-01-20T23:33:34.805Z,25.20
2023-01-20T23:36:10.509Z,25.58
2023-01-20T23:41:04.545Z,25.63
2023-01-20T23:43:32.298Z,25.27
2023-01-20T23:46:05.269Z,25.55
2023-01-20T23:48:33.277Z,25.48
2023-01-20T23:51:00.522Z,25.83
2023-01-20T23:53:29.055Z,25.05
2023-01-20T23:56:02.319Z,23.50
2023-01-20T23:58:29.420Z,23.58
